.
WxDataArchive / Data Records for 2011-02-04
2011-02-03 February 2011 2011-02-05

Data Records for Friday, 04 February 2011

Time	Temp	Chill	HIndex	Humid	Dewpt	 Wind 	HiWind	WindDir	Rain 	Barom 
-----	----	-----	------	-----	-----	------	------	-------	-----	----- 
00:00	13.6	13.6	13.6	75	7.2	2	5	248	0.00	30.394 
00:05	13.5	13.5	13.5	75	7.1	2	4	248	0.00	30.394 
00:10	13.5	13.5	13.5	76	7.4	2	6	248	0.00	30.394 
00:15	13.3	13.3	13.3	76	7.2	2	6	248	0.00	30.393 
00:20	13.1	13.1	13.1	76	7.0	2	4	248	0.00	30.393 
00:25	13.1	13.1	13.1	76	7.0	2	5	248	0.00	30.393 
00:30	12.9	12.9	12.9	76	6.8	2	5	248	0.00	30.396 
00:35	12.8	12.8	12.8	77	7.0	1	3	248	0.00	30.396 
00:40	12.6	12.6	12.6	77	6.8	1	4	248	0.00	30.396 
00:45	12.3	12.3	12.3	77	6.5	1	2	248	0.00	30.392 
00:50	12.1	12.1	12.1	77	6.3	0	3	248	0.00	30.392 
00:55	11.9	11.9	11.9	77	6.1	1	4	248	0.00	30.392 
01:00	11.9	11.9	11.9	78	6.4	1	3	248	0.00	30.389 
01:05	11.7	11.7	11.7	78	6.2	0	2	248	0.00	30.389 
01:10	11.6	11.6	11.6	78	6.1	1	3	248	0.00	30.389 
01:15	11.6	11.6	11.6	79	6.4	1	2	248	0.00	30.373 
01:20	11.4	11.4	11.4	79	6.2	1	6	248	0.00	30.373 
01:25	11.4	11.4	11.4	79	6.2	1	3	248	0.00	30.373 
01:30	11.6	11.6	11.6	79	6.4	1	4	248	0.00	30.363 
01:35	11.6	11.6	11.6	79	6.4	1	4	248	0.00	30.363 
01:40	11.6	11.6	11.6	79	6.4	2	6	248	0.00	30.363 
01:45	11.6	11.6	11.6	79	6.4	1	4	248	0.00	30.357 
01:50	11.6	11.6	11.6	79	6.4	1	4	248	0.00	30.357 
01:55	11.6	11.6	11.6	79	6.4	1	5	248	0.00	30.357 
02:00	11.7	11.7	11.7	79	6.5	2	6	248	0.00	30.348 
02:05	11.7	11.7	11.7	78	6.2	2	4	248	0.00	30.348 
02:10	11.6	11.6	11.6	78	6.1	1	5	248	0.00	30.348 
02:15	11.6	11.6	11.6	78	6.1	2	6	248	0.00	30.339 
02:20	11.7	11.7	11.7	78	6.2	2	7	248	0.00	30.339 
02:25	11.7	11.7	11.7	78	6.2	2	6	248	0.00	30.339 
02:30	11.7	11.7	11.7	78	6.2	1	4	248	0.00	30.339 
02:35	11.7	11.7	11.7	78	6.2	1	5	248	0.00	30.339 
02:40	11.7	11.7	11.7	78	6.2	2	9	248	0.00	30.339 
02:45	11.6	11.6	11.6	77	5.8	1	4	248	0.00	30.338 
02:50	11.6	11.6	11.6	77	5.8	1	6	248	0.00	30.338 
02:55	11.7	11.7	11.7	77	5.9	1	5	248	0.00	30.338 
03:00	11.6	11.6	11.6	76	5.5	1	3	225	0.00	30.340 
03:05	11.6	11.6	11.6	76	5.5	0	4	248	0.00	30.340 
03:10	11.4	11.4	11.4	76	5.3	1	3	248	0.00	30.340 
03:15	11.4	11.4	11.4	75	5.0	1	3	248	0.00	30.341 
03:20	11.4	11.4	11.4	74	4.8	1	3	248	0.00	30.341 
03:25	11.4	11.4	11.4	73	4.5	1	3	248	0.00	30.341 
03:30	11.4	11.4	11.4	73	4.5	2	5	248	0.00	30.338 
03:35	11.4	11.4	11.4	72	4.2	1	6	225	0.00	30.338 
03:40	11.4	11.4	11.4	72	4.2	1	6	225	0.00	30.338 
03:45	11.4	11.4	11.4	71	3.9	1	4	248	0.00	30.327 
03:50	11.4	11.4	11.4	71	3.9	2	5	248	0.00	30.327 
03:55	11.4	11.4	11.4	70	3.5	1	5	248	0.00	30.327 
04:00	11.4	11.4	11.4	70	3.5	1	5	248	0.00	30.323 
04:05	11.2	11.2	11.2	70	3.4	1	2	248	0.00	30.323 
04:10	11.2	11.2	11.2	69	3.0	1	4	248	0.00	30.323 
04:15	11.1	11.1	11.1	69	3.0	1	4	248	0.00	30.324 
04:20	11.2	11.2	11.2	69	3.0	2	7	225	0.00	30.324 
04:25	11.2	11.2	11.2	68	2.7	1	5	248	0.00	30.324 
04:30	11.2	11.2	11.2	68	2.7	1	5	248	0.00	30.315 
04:35	11.1	11.1	11.1	68	2.6	1	3	248	0.00	30.315 
04:40	11.2	11.2	11.2	67	2.4	2	6	248	0.00	30.315 
04:45	11.2	11.2	11.2	67	2.4	1	4	248	0.00	30.317 
04:50	11.1	11.1	11.1	66	2.0	1	3	225	0.00	30.317 
04:55	11.1	11.1	11.1	66	2.0	2	5	248	0.00	30.317 
05:00	11.1	11.1	11.1	65	1.7	2	6	248	0.00	30.313 
05:05	11.1	11.1	11.1	65	1.7	1	4	248	0.00	30.313 
05:10	11.1	11.1	11.1	65	1.7	2	4	248	0.00	30.313 
05:15	11.1	11.1	11.1	65	1.7	2	7	248	0.00	30.312 
05:20	11.1	11.1	11.1	64	1.3	2	5	248	0.00	30.312 
05:25	11.1	11.1	11.1	64	1.3	1	2	248	0.00	30.312 
05:30	10.9	10.9	10.9	64	1.1	1	4	225	0.00	30.307 
05:35	10.7	10.7	10.7	64	1.0	1	5	225	0.00	30.307 
05:40	10.7	10.7	10.7	65	1.3	1	5	248	0.00	30.307 
05:45	10.5	10.5	10.5	65	1.1	1	3	248	0.00	30.301 
05:50	10.5	10.5	10.5	65	1.1	2	6	248	0.00	30.301 
05:55	10.5	10.5	10.5	64	0.8	1	5	248	0.00	30.301 
06:00	10.7	10.7	10.7	64	1.0	1	5	248	0.00	30.295 
06:05	10.7	10.7	10.7	63	0.6	2	5	248	0.00	30.295 
06:10	10.9	10.9	10.9	63	0.8	1	4	248	0.00	30.295 
06:15	10.9	10.9	10.9	63	0.8	1	5	248	0.00	30.295 
06:20	10.7	10.7	10.7	63	0.6	2	4	248	0.00	30.295 
06:25	10.7	10.7	10.7	63	0.6	1	5	248	0.00	30.295 
06:30	10.7	10.7	10.7	63	0.6	2	5	248	0.00	30.288 
06:35	10.7	10.7	10.7	64	1.0	1	4	225	0.00	30.288 
06:40	10.5	10.5	10.5	64	0.8	1	4	248	0.00	30.288 
06:45	10.4	10.4	10.4	64	0.7	1	3	248	0.00	30.281 
06:50	10.2	10.2	10.2	65	0.8	1	4	248	0.00	30.281 
06:55	10.2	10.2	10.2	65	0.8	1	3	248	0.00	30.281 
07:00	10.4	10.4	10.4	65	1.0	1	4	248	0.00	30.283 
07:05	10.4	10.4	10.4	65	1.0	1	3	225	0.00	30.283 
07:10	10.4	10.4	10.4	65	1.0	0	2	225	0.00	30.283 
07:15	10.2	10.2	10.2	65	0.8	0	3	225	0.00	30.284 
07:20	10.0	10.0	10.0	65	0.6	1	3	225	0.00	30.284 
07:25	10.0	10.0	10.0	66	0.9	1	3	225	0.00	30.284 
07:30	10.0	10.0	10.0	67	1.3	1	5	248	0.00	30.288 
07:35	10.0	10.0	10.0	67	1.3	1	4	248	0.00	30.288 
07:40	10.0	10.0	10.0	67	1.3	1	3	225	0.00	30.288 
07:45	10.0	10.0	10.0	67	1.3	1	3	270	0.00	30.290 
07:50	10.0	10.0	10.0	67	1.3	1	4	248	0.00	30.290 
07:55	10.0	10.0	10.0	67	1.3	1	3	248	0.00	30.290 
08:00	10.0	10.0	10.0	67	1.3	1	4	248	0.00	30.298 
08:05	10.0	10.0	10.0	67	1.3	1	4	248	0.00	30.298 
08:10	10.0	10.0	10.0	67	1.3	1	5	248	0.00	30.298 
08:15	10.0	10.0	10.0	67	1.3	1	6	248	0.00	30.301 
08:20	10.2	10.2	10.2	67	1.5	1	3	248	0.00	30.301 
08:25	10.4	10.4	10.4	67	1.6	1	5	225	0.00	30.301 
08:30	10.7	10.7	10.7	67	1.9	2	6	270	0.00	30.292 
08:35	11.1	11.1	11.1	67	2.3	1	5	248	0.00	30.292 
08:40	11.4	11.4	11.4	66	2.3	2	6	248	0.00	30.292 
08:45	11.9	11.9	11.9	65	2.4	1	4	248	0.00	30.292 
08:50	12.4	12.4	12.4	65	2.9	1	5	248	0.00	30.292 
08:55	12.8	12.8	12.8	63	2.6	2	9	248	0.00	30.292 
09:00	13.1	13.1	13.1	63	2.9	2	7	248	0.00	30.287 
09:05	13.5	13.5	13.5	62	2.9	1	5	248	0.00	30.287 
09:10	14.0	14.0	14.0	62	3.4	1	4	248	0.00	30.287 
09:15	14.4	14.4	14.4	61	3.4	1	5	248	0.00	30.283 
09:20	14.8	14.8	14.8	60	3.5	2	4	248	0.00	30.283 
09:25	14.8	14.8	14.8	59	3.1	2	10	248	0.00	30.283 
09:30	14.9	14.9	14.9	59	3.2	3	7	248	0.00	30.270 
09:35	15.1	15.1	15.1	59	3.4	2	5	248	0.00	30.270 
09:40	15.6	15.6	15.6	59	3.9	1	3	248	0.00	30.270 
09:45	15.9	15.9	15.9	57	3.4	2	5	248	0.00	30.275 
09:50	16.2	16.2	16.2	57	3.7	2	6	248	0.00	30.275 
09:55	16.5	16.5	16.5	57	4.0	2	7	248	0.00	30.275 
10:00	16.7	16.7	16.7	55	3.4	3	6	248	0.00	30.273 
10:05	16.9	16.9	16.9	56	4.0	3	5	248	0.00	30.273 
10:10	17.2	17.2	17.2	55	3.8	3	7	225	0.00	30.273 
10:15	17.5	17.5	17.5	55	4.1	2	6	248	0.00	30.283 
10:20	17.7	17.7	17.7	53	3.5	3	7	248	0.00	30.283 
10:25	17.7	17.7	17.7	53	3.5	2	6	248	0.00	30.283 
10:30	18.0	18.0	18.0	54	4.2	2	9	248	0.00	30.276 
10:35	18.1	18.1	18.1	53	3.9	2	7	248	0.00	30.276 
10:40	18.3	18.3	18.3	52	3.7	3	7	248	0.00	30.276 
10:45	18.4	18.4	18.4	52	3.8	2	7	225	0.00	30.279 
10:50	18.6	18.6	18.6	52	3.9	2	5	248	0.00	30.279 
10:55	18.9	18.9	18.9	51	3.8	2	6	248	0.00	30.279 
11:00	19.1	19.1	19.1	51	4.0	2	7	248	0.00	30.274 
11:05	19.2	19.2	19.2	51	4.1	1	4	248	0.00	30.274 
11:10	19.4	19.4	19.4	50	3.8	2	7	248	0.00	30.274 
11:15	19.7	19.7	19.7	50	4.1	2	6	248	0.00	30.273 
11:20	19.9	19.9	19.9	48	3.4	2	7	248	0.00	30.273 
11:25	20.2	20.2	20.2	50	4.6	1	4	248	0.00	30.273 
11:30	20.5	20.5	20.5	46	3.0	3	10	248	0.00	30.274 
11:35	20.6	14.9	20.6	47	3.6	4	11	248	0.00	30.274 
11:40	20.8	20.8	20.8	46	3.3	2	11	248	0.00	30.274 
11:45	21.1	21.1	21.1	47	4.1	2	7	248	0.00	30.268 
11:50	21.4	21.4	21.4	46	3.9	3	9	225	0.00	30.268 
11:55	21.8	21.8	21.8	45	3.8	2	6	248	0.00	30.268 
12:00	22.2	22.2	22.2	45	4.1	2	6	248	0.00	30.257 
12:05	22.4	22.4	22.4	43	3.3	2	7	248	0.00	30.257 
12:10	22.7	22.7	22.7	45	4.6	2	6	225	0.00	30.257 
12:15	23.0	23.0	23.0	43	3.9	2	6	270	0.00	30.255 
12:20	23.2	23.2	23.2	43	4.1	3	6	248	0.00	30.255 
12:25	23.5	23.5	23.5	43	4.3	2	6	248	0.00	30.255 
12:30	23.6	23.6	23.6	41	3.4	2	6	248	0.00	30.240 
12:35	23.9	23.9	23.9	40	3.1	2	6	248	0.00	30.240 
12:40	24.1	24.1	24.1	40	3.3	2	6	225	0.00	30.240 
12:45	24.2	24.2	24.2	41	3.9	2	5	248	0.00	30.227 
12:50	24.5	24.5	24.5	41	4.2	1	4	248	0.00	30.227 
12:55	24.8	24.8	24.8	40	3.9	2	5	248	0.00	30.227 
13:00	25.1	25.1	25.1	37	2.5	2	4	248	0.00	30.220 
13:05	25.3	25.3	25.3	35	1.5	3	7	248	0.00	30.220 
13:10	25.4	25.4	25.4	36	2.2	2	7	248	0.00	30.220 
13:15	25.6	25.6	25.6	36	2.4	2	7	248	0.00	30.209 
13:20	25.6	20.7	25.6	34	1.2	4	10	248	0.00	30.209 
13:25	25.7	25.7	25.7	36	2.5	2	7	248	0.00	30.209 
13:30	25.8	25.8	25.8	37	3.2	2	9	248	0.00	30.196 
13:35	26.0	26.0	26.0	38	3.9	2	6	248	0.00	30.196 
13:40	26.1	26.1	26.1	36	2.8	2	5	248	0.00	30.196 
13:45	26.4	26.4	26.4	36	3.1	2	5	248	0.00	30.188 
13:50	26.4	26.4	26.4	35	2.5	3	9	248	0.00	30.188 
13:55	26.6	26.6	26.6	36	3.3	2	5	248	0.00	30.188 
14:00	26.9	26.9	26.9	35	2.9	2	6	248	0.00	30.175 
14:05	26.9	26.9	26.9	34	2.3	3	6	248	0.00	30.175 
14:10	26.9	26.9	26.9	35	2.9	2	6	248	0.00	30.175 
14:15	27.2	27.2	27.2	35	3.2	2	7	248	0.00	30.166 
14:20	27.5	27.5	27.5	36	4.1	1	4	248	0.00	30.166 
14:25	27.8	27.8	27.8	35	3.7	2	7	248	0.00	30.166 
14:30	27.9	27.9	27.9	36	4.4	2	5	248	0.00	30.157 
14:35	28.1	28.1	28.1	36	4.6	2	5	248	0.00	30.157 
14:40	28.2	28.2	28.2	35	4.1	2	4	248	0.00	30.157 
14:45	28.2	28.2	28.2	35	4.1	2	5	248	0.00	30.151 
14:50	28.2	28.2	28.2	33	2.8	2	6	248	0.00	30.151 
14:55	28.2	28.2	28.2	33	2.8	2	6	248	0.00	30.151 
15:00	28.2	28.2	28.2	33	2.8	2	6	248	0.00	30.144 
15:05	28.4	28.4	28.4	34	3.7	2	6	225	0.00	30.144 
15:10	28.2	28.2	28.2	33	2.8	3	9	248	0.00	30.144 
15:15	28.2	28.2	28.2	34	3.5	2	9	248	0.00	30.145 
15:20	28.4	28.4	28.4	33	3.0	2	9	248	0.00	30.145 
15:25	28.4	28.4	28.4	35	4.3	1	4	248	0.00	30.145 
15:30	28.7	28.7	28.7	33	3.3	2	6	248	0.00	30.139 
15:35	28.8	28.8	28.8	33	3.4	1	5	225	0.00	30.139 
15:40	28.8	28.8	28.8	35	4.6	1	3	225	0.00	30.139 
15:45	28.8	28.8	28.8	35	4.6	2	7	248	0.00	30.126 
15:50	28.7	28.7	28.7	37	5.8	1	5	248	0.00	30.126 
15:55	28.4	28.4	28.4	39	6.6	1	5	248	0.00	30.126 
16:00	28.2	28.2	28.2	39	6.5	1	4	248	0.00	30.128 
16:05	28.2	28.2	28.2	38	5.9	2	6	248	0.00	30.128 
16:10	28.1	28.1	28.1	37	5.2	2	6	248	0.00	30.128 
16:15	27.8	27.8	27.8	36	4.4	2	5	225	0.00	30.125 
16:20	27.5	27.5	27.5	37	4.7	3	6	248	0.00	30.125 
16:25	27.5	27.5	27.5	40	6.4	1	3	248	0.00	30.125 
16:30	27.3	27.3	27.3	39	5.6	1	5	248	0.00	30.124 
16:35	27.2	27.2	27.2	39	5.6	1	3	248	0.00	30.124 
16:40	27.0	27.0	27.0	38	4.8	1	5	248	0.00	30.124 
16:45	27.0	27.0	27.0	39	5.4	1	4	248	0.00	30.114 
16:50	26.9	26.9	26.9	38	4.7	1	3	248	0.00	30.114 
16:55	26.9	26.9	26.9	40	5.8	1	3	248	0.00	30.114 
17:00	26.6	26.6	26.6	40	5.6	1	5	248	0.00	30.107 
17:05	26.1	26.1	26.1	42	6.2	1	3	248	0.00	30.107 
17:10	25.8	25.8	25.8	42	5.9	1	4	248	0.00	30.107 
17:15	25.6	25.6	25.6	41	5.2	1	3	248	0.00	30.105 
17:20	25.3	25.3	25.3	40	4.4	1	3	248	0.00	30.105 
17:25	25.1	25.1	25.1	41	4.8	1	3	248	0.00	30.105 
17:30	25.0	25.0	25.0	40	4.1	2	7	248	0.00	30.099 
17:35	24.8	24.8	24.8	40	3.9	1	4	248	0.00	30.099 
17:40	24.7	24.7	24.7	40	3.9	1	5	248	0.00	30.099 
17:45	24.7	24.7	24.7	41	4.4	1	4	248	0.00	30.098 
17:50	24.5	24.5	24.5	43	5.2	0	3	248	0.00	30.098 
17:55	24.2	24.2	24.2	43	5.0	0	3	248	0.00	30.098 
18:00	24.1	24.1	24.1	43	4.9	1	5	248	0.00	30.096 
18:05	23.9	23.9	23.9	44	5.2	1	3	248	0.00	30.096 
18:10	23.8	23.8	23.8	44	5.1	1	4	248	0.00	30.096 
18:15	23.6	23.6	23.6	45	5.4	0	1	248	0.00	30.092 
18:20	23.5	23.5	23.5	46	5.8	1	3	248	0.00	30.092 
18:25	23.3	23.3	23.3	46	5.6	0	3	248	0.00	30.092 
18:30	23.2	23.2	23.2	46	5.5	0	2	248	0.00	30.090 
18:35	23.0	23.0	23.0	47	5.8	0	2	248	0.00	30.090 
18:40	22.9	22.9	22.9	47	5.7	0	3	248	0.00	30.090 
18:45	22.7	22.7	22.7	48	6.0	0	3	248	0.00	30.086 
18:50	22.5	22.5	22.5	48	5.8	0	2	248	0.00	30.086 
18:55	22.4	22.4	22.4	49	6.2	0	2	248	0.00	30.086 
19:00	22.2	22.2	22.2	49	6.0	0	2	248	0.00	30.075 
19:05	22.2	22.2	22.2	49	6.0	0	2	248	0.00	30.075 
19:10	22.2	22.2	22.2	49	6.0	0	2	248	0.00	30.075 
19:15	22.2	22.2	22.2	50	6.4	0	3	248	0.00	30.075 
19:20	22.1	22.1	22.1	50	6.3	0	3	248	0.00	30.075 
19:25	22.1	22.1	22.1	50	6.3	0	2	248	0.00	30.075 
19:30	22.1	22.1	22.1	50	6.3	0	5	248	0.00	30.070 
19:35	22.1	22.1	22.1	49	5.9	0	3	248	0.00	30.070 
19:40	22.1	22.1	22.1	49	5.9	1	4	248	0.00	30.070 
19:45	22.1	22.1	22.1	49	5.9	0	2	248	0.00	30.060 
19:50	22.2	22.2	22.2	49	6.0	1	3	248	0.00	30.060 
19:55	22.2	22.2	22.2	49	6.0	1	3	248	0.00	30.060 
20:00	22.1	22.1	22.1	49	5.9	0	1	248	0.00	30.057 
20:05	21.9	21.9	21.9	50	6.1	0	1	248	0.00	30.057 
20:10	21.8	21.8	21.8	50	6.1	0	2	248	0.00	30.057 
20:15	21.6	21.6	21.6	50	5.9	0	2	248	0.00	30.055 
20:20	21.6	21.6	21.6	51	6.3	0	2	248	0.00	30.055 
20:25	21.3	21.3	21.3	51	6.0	0	2	248	0.00	30.055 
20:30	21.1	21.1	21.1	51	5.8	0	1	248	0.00	30.049 
20:35	20.8	20.8	20.8	52	6.0	0	1	248	0.00	30.049 
20:40	20.5	20.5	20.5	53	6.1	0	2	248	0.00	30.049 
20:45	20.3	20.3	20.3	53	5.9	0	1	248	0.00	30.044 
20:50	20.2	20.2	20.2	53	5.8	0	1	248	0.00	30.044 
20:55	20.0	20.0	20.0	53	5.7	0	2	248	0.00	30.044 
21:00	19.9	19.9	19.9	53	5.6	0	0	---	0.00	30.040 
21:05	19.9	19.9	19.9	54	6.0	0	1	248	0.00	30.040 
21:10	19.7	19.7	19.7	54	5.8	0	0	---	0.00	30.040 
21:15	19.5	19.5	19.5	55	6.0	0	1	248	0.00	30.032 
21:20	19.2	19.2	19.2	55	5.7	0	1	248	0.00	30.032 
21:25	19.1	19.1	19.1	55	5.6	0	0	---	0.00	30.032 
21:30	18.9	18.9	18.9	56	5.8	0	0	---	0.00	30.027 
21:35	18.8	18.8	18.8	56	5.7	0	0	---	0.00	30.027 
21:40	18.6	18.6	18.6	57	5.9	0	1	248	0.00	30.027 
21:45	18.4	18.4	18.4	57	5.7	0	1	248	0.00	30.022 
21:50	18.3	18.3	18.3	57	5.7	0	0	---	0.00	30.022 
21:55	18.1	18.1	18.1	58	5.8	0	1	248	0.00	30.022 
22:00	18.1	18.1	18.1	58	5.8	0	0	---	0.00	30.019 
22:05	18.0	18.0	18.0	59	6.1	0	0	---	0.00	30.019 
22:10	17.7	17.7	17.7	59	5.8	0	0	---	0.00	30.019 
22:15	17.3	17.3	17.3	59	5.5	0	0	---	0.00	30.011 
22:20	17.0	17.0	17.0	60	5.5	0	0	---	0.00	30.011 
22:25	16.5	16.5	16.5	60	5.1	0	0	---	0.00	30.011 
22:30	16.2	16.2	16.2	61	5.1	0	0	---	0.00	30.004 
22:35	15.9	15.9	15.9	62	5.2	0	0	---	0.00	30.004 
22:40	15.6	15.6	15.6	64	5.6	0	0	---	0.00	30.004 
22:45	15.2	15.2	15.2	64	5.2	0	0	---	0.00	30.003 
22:50	14.9	14.9	14.9	65	5.3	0	0	---	0.00	30.003 
22:55	14.8	14.8	14.8	66	5.5	0	0	---	0.00	30.003 
23:00	14.6	14.6	14.6	66	5.3	0	0	---	0.00	29.996 
23:05	14.4	14.4	14.4	66	5.1	0	0	---	0.00	29.996 
23:10	14.4	14.4	14.4	66	5.1	0	0	---	0.00	29.996 
23:15	14.4	14.4	14.4	67	5.5	0	0	---	0.00	29.988 
23:20	14.4	14.4	14.4	67	5.5	0	0	---	0.00	29.988 
23:25	14.4	14.4	14.4	68	5.8	0	0	---	0.00	29.988 
23:30	14.3	14.3	14.3	67	5.4	0	0	---	0.00	29.982 
23:35	14.3	14.3	14.3	67	5.4	0	0	---	0.00	29.982 
23:40	14.1	14.1	14.1	68	5.5	0	0	---	0.00	29.982 
23:45	14.1	14.1	14.1	68	5.5	0	0	---	0.00	29.972 
23:50	14.0	14.0	14.0	68	5.4	0	0	---	0.00	29.972 
23:55	14.0	14.0	14.0	68	5.4	0	0	---	0.00	29.972 

CoCoRaHS
IN-AL-39
A2 Web Hosting
Creative Commons License
GoDaddy
search engine by freefind advanced

loaded 2018-11-15 14:04:07 • last modified 2010-11-18 10:43:29
Privacy PolicyDisclaimer
• wx.awcolley.com is powered by PmWiki v.2002016 •
• all content (unless otherwise noted) © 2018 A W Colley